sensor_id;sensor_type;location;lat;lon;timestamp;P1;durP1;ratioP1;P2;durP2;ratioP2
40533;SDS011;26233;51.894;10.192;2023-07-16T00:02:03;2.67;;;2.47;;
40533;SDS011;26233;51.894;10.192;2023-07-16T00:04:31;2.50;;;2.30;;
40533;SDS011;26233;51.894;10.192;2023-07-16T00:06:59;2.55;;;2.35;;
40533;SDS011;26233;51.894;10.192;2023-07-16T00:09:26;2.63;;;2.40;;
40533;SDS011;26233;51.894;10.192;2023-07-16T00:11:54;2.58;;;2.35;;
40533;SDS011;26233;51.894;10.192;2023-07-16T00:14:21;2.92;;;2.70;;
40533;SDS011;26233;51.894;10.192;2023-07-16T00:16:50;2.58;;;2.38;;
40533;SDS011;26233;51.894;10.192;2023-07-16T00:19:17;2.65;;;2.47;;
40533;SDS011;26233;51.894;10.192;2023-07-16T00:21:44;2.85;;;2.65;;
40533;SDS011;26233;51.894;10.192;2023-07-16T00:24:11;3.03;;;2.40;;
40533;SDS011;26233;51.894;10.192;2023-07-16T00:26:38;2.80;;;2.60;;
40533;SDS011;26233;51.894;10.192;2023-07-16T00:29:05;3.78;;;2.72;;
40533;SDS011;26233;51.894;10.192;2023-07-16T00:31:32;3.03;;;2.38;;
40533;SDS011;26233;51.894;10.192;2023-07-16T00:34:00;3.83;;;2.60;;
40533;SDS011;26233;51.894;10.192;2023-07-16T00:36:28;2.58;;;2.38;;
40533;SDS011;26233;51.894;10.192;2023-07-16T00:38:55;2.65;;;2.45;;
40533;SDS011;26233;51.894;10.192;2023-07-16T00:41:22;2.80;;;2.38;;
40533;SDS011;26233;51.894;10.192;2023-07-16T00:43:49;2.50;;;2.30;;
40533;SDS011;26233;51.894;10.192;2023-07-16T00:46:16;2.58;;;2.38;;
40533;SDS011;26233;51.894;10.192;2023-07-16T00:48:44;2.78;;;2.58;;
40533;SDS011;26233;51.894;10.192;2023-07-16T00:51:12;2.45;;;2.30;;
40533;SDS011;26233;51.894;10.192;2023-07-16T00:53:40;2.40;;;2.20;;
40533;SDS011;26233;51.894;10.192;2023-07-16T00:56:08;2.25;;;2.15;;
40533;SDS011;26233;51.894;10.192;2023-07-16T00:58:38;2.63;;;2.42;;
40533;SDS011;26233;51.894;10.192;2023-07-16T01:01:05;3.03;;;2.60;;
40533;SDS011;26233;51.894;10.192;2023-07-16T01:03:32;2.70;;;2.50;;
40533;SDS011;26233;51.894;10.192;2023-07-16T01:06:01;2.40;;;2.30;;
40533;SDS011;26233;51.894;10.192;2023-07-16T01:08:41;2.72;;;2.33;;
40533;SDS011;26233;51.894;10.192;2023-07-16T01:11:12;2.55;;;2.35;;
40533;SDS011;26233;51.894;10.192;2023-07-16T01:13:41;3.15;;;2.45;;
40533;SDS011;26233;51.894;10.192;2023-07-16T01:16:17;2.53;;;2.33;;
40533;SDS011;26233;51.894;10.192;2023-07-16T01:18:46;2.60;;;2.40;;
40533;SDS011;26233;51.894;10.192;2023-07-16T01:21:13;2.53;;;2.33;;
40533;SDS011;26233;51.894;10.192;2023-07-16T01:23:48;2.47;;;2.20;;
40533;SDS011;26233;51.894;10.192;2023-07-16T01:26:32;2.25;;;2.05;;
40533;SDS011;26233;51.894;10.192;2023-07-16T01:29:28;2.65;;;2.50;;
40533;SDS011;26233;51.894;10.192;2023-07-16T01:31:58;2.75;;;2.50;;
40533;SDS011;26233;51.894;10.192;2023-07-16T01:34:28;3.03;;;2.65;;
40533;SDS011;26233;51.894;10.192;2023-07-16T01:36:58;2.50;;;2.40;;
40533;SDS011;26233;51.894;10.192;2023-07-16T01:39:26;2.50;;;2.30;;
40533;SDS011;26233;51.894;10.192;2023-07-16T01:41:53;2.60;;;2.38;;
40533;SDS011;26233;51.894;10.192;2023-07-16T01:44:20;2.85;;;2.53;;
40533;SDS011;26233;51.894;10.192;2023-07-16T01:46:49;3.40;;;2.70;;
40533;SDS011;26233;51.894;10.192;2023-07-16T01:49:31;3.28;;;2.20;;
40533;SDS011;26233;51.894;10.192;2023-07-16T01:51:59;2.70;;;2.50;;
40533;SDS011;26233;51.894;10.192;2023-07-16T01:54:27;3.33;;;2.35;;
40533;SDS011;26233;51.894;10.192;2023-07-16T01:56:54;2.33;;;2.13;;
40533;SDS011;26233;51.894;10.192;2023-07-16T01:59:21;2.70;;;2.50;;
40533;SDS011;26233;51.894;10.192;2023-07-16T02:01:49;2.40;;;2.20;;
40533;SDS011;26233;51.894;10.192;2023-07-16T02:04:18;2.42;;;2.05;;
40533;SDS011;26233;51.894;10.192;2023-07-16T02:06:46;2.40;;;2.20;;
40533;SDS011;26233;51.894;10.192;2023-07-16T02:09:13;2.35;;;1.85;;
40533;SDS011;26233;51.894;10.192;2023-07-16T02:11:41;2.13;;;2.03;;
40533;SDS011;26233;51.894;10.192;2023-07-16T02:14:08;2.05;;;1.95;;
40533;SDS011;26233;51.894;10.192;2023-07-16T02:16:35;3.25;;;2.20;;
40533;SDS011;26233;51.894;10.192;2023-07-16T02:19:04;2.42;;;2.22;;
40533;SDS011;26233;51.894;10.192;2023-07-16T02:21:31;2.90;;;2.28;;
40533;SDS011;26233;51.894;10.192;2023-07-16T02:23:58;2.15;;;1.90;;
40533;SDS011;26233;51.894;10.192;2023-07-16T02:26:25;2.40;;;2.20;;
40533;SDS011;26233;51.894;10.192;2023-07-16T02:28:52;2.20;;;2.00;;
40533;SDS011;26233;51.894;10.192;2023-07-16T02:31:19;2.45;;;2.20;;
40533;SDS011;26233;51.894;10.192;2023-07-16T02:33:46;2.33;;;2.15;;
40533;SDS011;26233;51.894;10.192;2023-07-16T02:36:14;2.25;;;2.05;;
40533;SDS011;26233;51.894;10.192;2023-07-16T02:38:41;2.58;;;2.35;;
40533;SDS011;26233;51.894;10.192;2023-07-16T02:41:08;2.10;;;1.90;;
40533;SDS011;26233;51.894;10.192;2023-07-16T02:43:35;2.22;;;2.00;;
40533;SDS011;26233;51.894;10.192;2023-07-16T02:46:02;2.40;;;2.20;;
40533;SDS011;26233;51.894;10.192;2023-07-16T02:48:29;2.15;;;2.00;;
40533;SDS011;26233;51.894;10.192;2023-07-16T02:50:57;2.88;;;2.20;;
40533;SDS011;26233;51.894;10.192;2023-07-16T02:53:25;4.10;;;2.60;;
40533;SDS011;26233;51.894;10.192;2023-07-16T02:55:52;2.38;;;2.10;;
40533;SDS011;26233;51.894;10.192;2023-07-16T02:58:19;2.00;;;1.90;;
40533;SDS011;26233;51.894;10.192;2023-07-16T03:00:46;2.28;;;2.08;;
40533;SDS011;26233;51.894;10.192;2023-07-16T03:03:13;2.25;;;2.13;;
40533;SDS011;26233;51.894;10.192;2023-07-16T03:05:40;2.25;;;2.05;;
40533;SDS011;26233;51.894;10.192;2023-07-16T03:08:07;2.20;;;1.92;;
40533;SDS011;26233;51.894;10.192;2023-07-16T03:10:36;2.13;;;1.92;;
40533;SDS011;26233;51.894;10.192;2023-07-16T03:13:03;2.03;;;1.80;;
40533;SDS011;26233;51.894;10.192;2023-07-16T03:15:30;1.92;;;1.77;;
40533;SDS011;26233;51.894;10.192;2023-07-16T03:17:57;3.03;;;1.80;;
40533;SDS011;26233;51.894;10.192;2023-07-16T03:20:24;4.57;;;2.03;;
40533;SDS011;26233;51.894;10.192;2023-07-16T03:22:51;2.28;;;2.00;;
40533;SDS011;26233;51.894;10.192;2023-07-16T03:25:18;1.90;;;1.80;;
40533;SDS011;26233;51.894;10.192;2023-07-16T03:27:49;2.63;;;2.20;;
40533;SDS011;26233;51.894;10.192;2023-07-16T03:30:16;2.28;;;1.98;;
40533;SDS011;26233;51.894;10.192;2023-07-16T03:32:43;1.70;;;1.60;;
40533;SDS011;26233;51.894;10.192;2023-07-16T03:35:10;1.58;;;1.48;;
40533;SDS011;26233;51.894;10.192;2023-07-16T03:37:37;2.67;;;1.75;;
40533;SDS011;26233;51.894;10.192;2023-07-16T03:40:12;2.45;;;1.85;;
40533;SDS011;26233;51.894;10.192;2023-07-16T03:42:43;1.85;;;1.75;;
40533;SDS011;26233;51.894;10.192;2023-07-16T03:45:12;2.03;;;1.90;;
40533;SDS011;26233;51.894;10.192;2023-07-16T03:47:39;1.73;;;1.60;;
40533;SDS011;26233;51.894;10.192;2023-07-16T03:50:07;2.17;;;1.80;;
40533;SDS011;26233;51.894;10.192;2023-07-16T03:52:35;2.42;;;2.22;;
40533;SDS011;26233;51.894;10.192;2023-07-16T03:55:02;2.65;;;1.83;;
40533;SDS011;26233;51.894;10.192;2023-07-16T03:57:29;2.58;;;1.95;;
40533;SDS011;26233;51.894;10.192;2023-07-16T03:59:56;1.90;;;1.80;;
40533;SDS011;26233;51.894;10.192;2023-07-16T04:02:25;1.73;;;1.63;;
40533;SDS011;26233;51.894;10.192;2023-07-16T04:04:52;1.95;;;1.83;;
40533;SDS011;26233;51.894;10.192;2023-07-16T04:07:19;1.70;;;1.50;;
40533;SDS011;26233;51.894;10.192;2023-07-16T04:09:46;1.90;;;1.75;;
40533;SDS011;26233;51.894;10.192;2023-07-16T04:12:13;1.83;;;1.73;;
40533;SDS011;26233;51.894;10.192;2023-07-16T04:14:40;2.55;;;1.90;;
40533;SDS011;26233;51.894;10.192;2023-07-16T04:17:08;2.23;;;1.87;;
40533;SDS011;26233;51.894;10.192;2023-07-16T04:19:36;1.95;;;1.85;;
40533;SDS011;26233;51.894;10.192;2023-07-16T04:22:04;2.33;;;2.00;;
40533;SDS011;26233;51.894;10.192;2023-07-16T04:24:31;1.92;;;1.83;;
40533;SDS011;26233;51.894;10.192;2023-07-16T04:26:59;1.90;;;1.80;;
40533;SDS011;26233;51.894;10.192;2023-07-16T04:29:26;1.85;;;1.75;;
40533;SDS011;26233;51.894;10.192;2023-07-16T04:31:53;3.53;;;1.90;;
40533;SDS011;26233;51.894;10.192;2023-07-16T04:34:20;2.40;;;1.60;;
40533;SDS011;26233;51.894;10.192;2023-07-16T04:36:48;1.83;;;1.70;;
40533;SDS011;26233;51.894;10.192;2023-07-16T04:39:15;1.85;;;1.65;;
40533;SDS011;26233;51.894;10.192;2023-07-16T04:41:42;2.15;;;1.95;;
40533;SDS011;26233;51.894;10.192;2023-07-16T04:44:09;1.75;;;1.42;;
40533;SDS011;26233;51.894;10.192;2023-07-16T04:46:37;2.40;;;1.70;;
40533;SDS011;26233;51.894;10.192;2023-07-16T04:49:04;1.75;;;1.65;;
40533;SDS011;26233;51.894;10.192;2023-07-16T04:51:32;2.55;;;1.83;;
40533;SDS011;26233;51.894;10.192;2023-07-16T04:54:00;1.88;;;1.77;;
40533;SDS011;26233;51.894;10.192;2023-07-16T04:56:27;2.42;;;2.03;;
40533;SDS011;26233;51.894;10.192;2023-07-16T04:58:54;2.83;;;1.90;;
40533;SDS011;26233;51.894;10.192;2023-07-16T05:01:21;2.45;;;1.70;;
40533;SDS011;26233;51.894;10.192;2023-07-16T05:03:48;2.28;;;1.80;;
40533;SDS011;26233;51.894;10.192;2023-07-16T05:06:15;2.25;;;1.90;;
40533;SDS011;26233;51.894;10.192;2023-07-16T05:08:42;2.35;;;1.80;;
40533;SDS011;26233;51.894;10.192;2023-07-16T05:11:11;3.50;;;1.85;;
40533;SDS011;26233;51.894;10.192;2023-07-16T05:13:39;1.67;;;1.58;;
40533;SDS011;26233;51.894;10.192;2023-07-16T05:16:06;1.98;;;1.88;;
40533;SDS011;26233;51.894;10.192;2023-07-16T05:18:33;1.90;;;1.70;;
40533;SDS011;26233;51.894;10.192;2023-07-16T05:21:00;2.28;;;1.80;;
40533;SDS011;26233;51.894;10.192;2023-07-16T05:23:27;1.85;;;1.75;;
40533;SDS011;26233;51.894;10.192;2023-07-16T05:25:54;2.40;;;1.90;;
40533;SDS011;26233;51.894;10.192;2023-07-16T05:28:24;1.60;;;1.50;;
40533;SDS011;26233;51.894;10.192;2023-07-16T05:30:57;2.50;;;1.65;;
40533;SDS011;26233;51.894;10.192;2023-07-16T05:33:25;2.03;;;1.65;;
40533;SDS011;26233;51.894;10.192;2023-07-16T05:35:52;1.90;;;1.60;;
40533;SDS011;26233;51.894;10.192;2023-07-16T05:38:19;1.98;;;1.77;;
40533;SDS011;26233;51.894;10.192;2023-07-16T05:40:46;2.03;;;1.55;;
40533;SDS011;26233;51.894;10.192;2023-07-16T05:43:13;1.98;;;1.67;;
40533;SDS011;26233;51.894;10.192;2023-07-16T05:45:42;2.35;;;1.77;;
40533;SDS011;26233;51.894;10.192;2023-07-16T05:48:09;2.50;;;1.65;;
40533;SDS011;26233;51.894;10.192;2023-07-16T05:50:36;1.60;;;1.50;;
40533;SDS011;26233;51.894;10.192;2023-07-16T05:53:04;1.60;;;1.50;;
40533;SDS011;26233;51.894;10.192;2023-07-16T05:55:31;1.70;;;1.60;;
40533;SDS011;26233;51.894;10.192;2023-07-16T05:57:58;1.45;;;1.30;;
40533;SDS011;26233;51.894;10.192;2023-07-16T06:00:25;1.70;;;1.60;;
40533;SDS011;26233;51.894;10.192;2023-07-16T06:02:56;1.60;;;1.50;;
40533;SDS011;26233;51.894;10.192;2023-07-16T06:05:23;1.77;;;1.42;;
40533;SDS011;26233;51.894;10.192;2023-07-16T06:07:51;1.40;;;1.30;;
40533;SDS011;26233;51.894;10.192;2023-07-16T06:10:18;1.45;;;1.35;;
40533;SDS011;26233;51.894;10.192;2023-07-16T06:12:45;2.20;;;1.60;;
40533;SDS011;26233;51.894;10.192;2023-07-16T06:15:12;1.63;;;1.38;;
40533;SDS011;26233;51.894;10.192;2023-07-16T06:17:39;1.77;;;1.60;;
40533;SDS011;26233;51.894;10.192;2023-07-16T06:20:08;1.52;;;1.42;;
40533;SDS011;26233;51.894;10.192;2023-07-16T06:22:36;1.92;;;1.55;;
40533;SDS011;26233;51.894;10.192;2023-07-16T06:25:03;1.65;;;1.30;;
40533;SDS011;26233;51.894;10.192;2023-07-16T06:27:31;1.50;;;1.40;;
40533;SDS011;26233;51.894;10.192;2023-07-16T06:29:58;1.60;;;1.48;;
40533;SDS011;26233;51.894;10.192;2023-07-16T06:32:25;1.70;;;1.40;;
40533;SDS011;26233;51.894;10.192;2023-07-16T06:34:52;2.58;;;1.42;;
40533;SDS011;26233;51.894;10.192;2023-07-16T06:37:21;1.65;;;1.40;;
40533;SDS011;26233;51.894;10.192;2023-07-16T06:39:49;1.75;;;1.30;;
40533;SDS011;26233;51.894;10.192;2023-07-16T06:42:16;1.60;;;1.50;;
40533;SDS011;26233;51.894;10.192;2023-07-16T06:44:43;1.95;;;1.40;;
40533;SDS011;26233;51.894;10.192;2023-07-16T06:47:10;1.40;;;1.30;;
40533;SDS011;26233;51.894;10.192;2023-07-16T06:49:37;3.20;;;1.45;;
40533;SDS011;26233;51.894;10.192;2023-07-16T06:52:06;1.20;;;1.10;;
40533;SDS011;26233;51.894;10.192;2023-07-16T06:54:35;3.30;;;1.55;;
40533;SDS011;26233;51.894;10.192;2023-07-16T06:57:06;1.50;;;1.40;;
40533;SDS011;26233;51.894;10.192;2023-07-16T06:59:33;2.50;;;1.40;;
40533;SDS011;26233;51.894;10.192;2023-07-16T07:02:00;2.30;;;1.35;;
40533;SDS011;26233;51.894;10.192;2023-07-16T07:04:27;1.40;;;1.30;;
40533;SDS011;26233;51.894;10.192;2023-07-16T07:06:54;1.52;;;1.38;;
40533;SDS011;26233;51.894;10.192;2023-07-16T07:09:21;1.83;;;1.30;;
40533;SDS011;26233;51.894;10.192;2023-07-16T07:11:50;2.53;;;1.45;;
40533;SDS011;26233;51.894;10.192;2023-07-16T07:14:17;1.75;;;1.30;;
40533;SDS011;26233;51.894;10.192;2023-07-16T07:16:44;2.22;;;1.30;;
40533;SDS011;26233;51.894;10.192;2023-07-16T07:19:11;2.08;;;1.40;;
40533;SDS011;26233;51.894;10.192;2023-07-16T07:21:38;1.35;;;1.20;;
40533;SDS011;26233;51.894;10.192;2023-07-16T07:24:05;1.40;;;1.30;;
40533;SDS011;26233;51.894;10.192;2023-07-16T07:26:32;1.33;;;1.08;;
40533;SDS011;26233;51.894;10.192;2023-07-16T07:29:00;1.98;;;1.45;;
40533;SDS011;26233;51.894;10.192;2023-07-16T07:31:28;1.98;;;1.27;;
40533;SDS011;26233;51.894;10.192;2023-07-16T07:33:55;1.88;;;1.30;;
40533;SDS011;26233;51.894;10.192;2023-07-16T07:36:22;1.70;;;1.42;;
40533;SDS011;26233;51.894;10.192;2023-07-16T07:38:49;1.17;;;1.05;;
40533;SDS011;26233;51.894;10.192;2023-07-16T07:41:16;1.23;;;1.13;;
40533;SDS011;26233;51.894;10.192;2023-07-16T07:43:43;3.08;;;1.33;;
40533;SDS011;26233;51.894;10.192;2023-07-16T07:46:12;2.45;;;1.48;;
40533;SDS011;26233;51.894;10.192;2023-07-16T07:48:39;2.20;;;1.48;;
40533;SDS011;26233;51.894;10.192;2023-07-16T07:51:06;2.03;;;1.40;;
40533;SDS011;26233;51.894;10.192;2023-07-16T07:53:33;2.80;;;1.60;;
40533;SDS011;26233;51.894;10.192;2023-07-16T07:56:00;1.95;;;1.27;;
40533;SDS011;26233;51.894;10.192;2023-07-16T07:58:27;1.75;;;1.40;;
40533;SDS011;26233;51.894;10.192;2023-07-16T08:00:54;1.60;;;1.30;;
40533;SDS011;26233;51.894;10.192;2023-07-16T08:03:22;2.40;;;1.58;;
40533;SDS011;26233;51.894;10.192;2023-07-16T08:05:50;1.45;;;1.33;;
40533;SDS011;26233;51.894;10.192;2023-07-16T08:08:17;1.83;;;1.33;;
40533;SDS011;26233;51.894;10.192;2023-07-16T08:10:44;2.25;;;1.60;;
40533;SDS011;26233;51.894;10.192;2023-07-16T08:13:11;2.03;;;1.48;;
40533;SDS011;26233;51.894;10.192;2023-07-16T08:15:38;1.45;;;1.35;;
40533;SDS011;26233;51.894;10.192;2023-07-16T08:18:06;2.05;;;1.58;;
40533;SDS011;26233;51.894;10.192;2023-07-16T08:20:35;1.77;;;1.40;;
40533;SDS011;26233;51.894;10.192;2023-07-16T08:23:02;1.33;;;1.23;;
40533;SDS011;26233;51.894;10.192;2023-07-16T08:25:29;2.10;;;1.25;;
40533;SDS011;26233;51.894;10.192;2023-07-16T08:27:56;1.25;;;1.15;;
40533;SDS011;26233;51.894;10.192;2023-07-16T08:30:23;1.60;;;1.20;;
40533;SDS011;26233;51.894;10.192;2023-07-16T08:32:50;1.20;;;1.10;;
40533;SDS011;26233;51.894;10.192;2023-07-16T08:35:17;1.63;;;1.35;;
40533;SDS011;26233;51.894;10.192;2023-07-16T08:37:46;3.63;;;1.40;;
40533;SDS011;26233;51.894;10.192;2023-07-16T08:40:13;2.05;;;1.50;;
40533;SDS011;26233;51.894;10.192;2023-07-16T08:42:41;1.58;;;1.48;;
40533;SDS011;26233;51.894;10.192;2023-07-16T08:45:14;1.77;;;1.42;;
40533;SDS011;26233;51.894;10.192;2023-07-16T08:47:42;1.80;;;1.45;;
40533;SDS011;26233;51.894;10.192;2023-07-16T08:50:09;1.80;;;1.48;;
40533;SDS011;26233;51.894;10.192;2023-07-16T08:52:37;1.40;;;1.30;;
40533;SDS011;26233;51.894;10.192;2023-07-16T08:55:07;1.50;;;1.40;;
40533;SDS011;26233;51.894;10.192;2023-07-16T08:57:35;1.58;;;1.48;;
40533;SDS011;26233;51.894;10.192;2023-07-16T09:00:03;2.28;;;1.58;;
40533;SDS011;26233;51.894;10.192;2023-07-16T09:02:32;1.65;;;1.48;;
40533;SDS011;26233;51.894;10.192;2023-07-16T09:04:59;3.70;;;1.90;;
40533;SDS011;26233;51.894;10.192;2023-07-16T09:07:29;2.42;;;1.75;;
40533;SDS011;26233;51.894;10.192;2023-07-16T09:09:56;2.10;;;1.40;;
40533;SDS011;26233;51.894;10.192;2023-07-16T09:12:26;1.90;;;1.60;;
40533;SDS011;26233;51.894;10.192;2023-07-16T09:14:54;1.77;;;1.30;;
40533;SDS011;26233;51.894;10.192;2023-07-16T09:17:22;2.92;;;1.45;;
40533;SDS011;26233;51.894;10.192;2023-07-16T09:19:50;3.13;;;1.70;;
40533;SDS011;26233;51.894;10.192;2023-07-16T09:22:18;1.67;;;1.52;;
40533;SDS011;26233;51.894;10.192;2023-07-16T09:24:46;1.67;;;1.58;;
40533;SDS011;26233;51.894;10.192;2023-07-16T09:27:13;1.95;;;1.70;;
40533;SDS011;26233;51.894;10.192;2023-07-16T09:29:42;1.95;;;1.50;;
40533;SDS011;26233;51.894;10.192;2023-07-16T09:32:09;1.70;;;1.52;;
40533;SDS011;26233;51.894;10.192;2023-07-16T09:34:36;1.65;;;1.52;;
40533;SDS011;26233;51.894;10.192;2023-07-16T09:37:04;1.80;;;1.60;;
40533;SDS011;26233;51.894;10.192;2023-07-16T09:39:32;1.75;;;1.50;;
40533;SDS011;26233;51.894;10.192;2023-07-16T09:41:59;1.75;;;1.50;;
40533;SDS011;26233;51.894;10.192;2023-07-16T09:44:28;2.10;;;1.70;;
40533;SDS011;26233;51.894;10.192;2023-07-16T09:46:57;1.95;;;1.75;;
40533;SDS011;26233;51.894;10.192;2023-07-16T09:49:25;2.95;;;1.65;;
40533;SDS011;26233;51.894;10.192;2023-07-16T09:51:56;2.03;;;1.65;;
40533;SDS011;26233;51.894;10.192;2023-07-16T09:54:24;2.13;;;1.50;;
40533;SDS011;26233;51.894;10.192;2023-07-16T09:56:53;1.70;;;1.40;;
40533;SDS011;26233;51.894;10.192;2023-07-16T09:59:25;1.60;;;1.50;;
40533;SDS011;26233;51.894;10.192;2023-07-16T10:01:55;2.35;;;1.58;;
40533;SDS011;26233;51.894;10.192;2023-07-16T10:04:24;3.05;;;1.60;;
40533;SDS011;26233;51.894;10.192;2023-07-16T10:06:52;2.63;;;1.65;;
40533;SDS011;26233;51.894;10.192;2023-07-16T10:09:31;1.60;;;1.50;;
40533;SDS011;26233;51.894;10.192;2023-07-16T10:12:07;1.58;;;1.48;;
40533;SDS011;26233;51.894;10.192;2023-07-16T10:14:41;1.60;;;1.50;;
40533;SDS011;26233;51.894;10.192;2023-07-16T10:17:15;1.48;;;1.38;;
40533;SDS011;26233;51.894;10.192;2023-07-16T10:19:48;1.50;;;1.40;;
40533;SDS011;26233;51.894;10.192;2023-07-16T10:22:17;3.17;;;1.65;;
40533;SDS011;26233;51.894;10.192;2023-07-16T10:24:50;2.67;;;1.70;;
40533;SDS011;26233;51.894;10.192;2023-07-16T10:27:26;1.75;;;1.55;;
40533;SDS011;26233;51.894;10.192;2023-07-16T10:29:54;5.25;;;1.50;;
40533;SDS011;26233;51.894;10.192;2023-07-16T10:32:25;1.67;;;1.50;;
40533;SDS011;26233;51.894;10.192;2023-07-16T10:34:54;1.80;;;1.70;;
40533;SDS011;26233;51.894;10.192;2023-07-16T10:37:22;2.03;;;1.60;;
40533;SDS011;26233;51.894;10.192;2023-07-16T10:39:53;2.47;;;1.67;;
40533;SDS011;26233;51.894;10.192;2023-07-16T10:42:22;2.50;;;1.55;;
40533;SDS011;26233;51.894;10.192;2023-07-16T10:44:51;1.50;;;1.40;;
40533;SDS011;26233;51.894;10.192;2023-07-16T10:47:22;2.28;;;1.60;;
40533;SDS011;26233;51.894;10.192;2023-07-16T10:49:55;2.40;;;1.90;;
40533;SDS011;26233;51.894;10.192;2023-07-16T10:52:22;1.73;;;1.50;;
40533;SDS011;26233;51.894;10.192;2023-07-16T10:54:50;1.65;;;1.55;;
40533;SDS011;26233;51.894;10.192;2023-07-16T10:57:19;1.60;;;1.50;;
40533;SDS011;26233;51.894;10.192;2023-07-16T10:59:47;1.85;;;1.70;;
40533;SDS011;26233;51.894;10.192;2023-07-16T11:02:15;1.92;;;1.73;;
40533;SDS011;26233;51.894;10.192;2023-07-16T11:04:45;3.50;;;1.55;;
40533;SDS011;26233;51.894;10.192;2023-07-16T11:07:13;1.88;;;1.65;;
40533;SDS011;26233;51.894;10.192;2023-07-16T11:09:41;2.22;;;1.80;;
40533;SDS011;26233;51.894;10.192;2023-07-16T11:12:10;2.60;;;1.52;;
40533;SDS011;26233;51.894;10.192;2023-07-16T11:14:39;2.15;;;1.88;;
40533;SDS011;26233;51.894;10.192;2023-07-16T11:17:10;2.30;;;1.90;;
40533;SDS011;26233;51.894;10.192;2023-07-16T11:19:37;2.33;;;1.77;;
40533;SDS011;26233;51.894;10.192;2023-07-16T11:22:09;1.77;;;1.67;;
40533;SDS011;26233;51.894;10.192;2023-07-16T11:24:38;2.17;;;1.98;;
40533;SDS011;26233;51.894;10.192;2023-07-16T11:27:12;5.13;;;2.05;;
40533;SDS011;26233;51.894;10.192;2023-07-16T11:29:44;2.03;;;1.88;;
40533;SDS011;26233;51.894;10.192;2023-07-16T11:32:13;2.08;;;1.88;;
40533;SDS011;26233;51.894;10.192;2023-07-16T11:34:53;2.10;;;1.90;;
40533;SDS011;26233;51.894;10.192;2023-07-16T11:37:22;2.05;;;1.90;;
40533;SDS011;26233;51.894;10.192;2023-07-16T11:39:54;2.05;;;1.85;;
40533;SDS011;26233;51.894;10.192;2023-07-16T11:42:22;1.92;;;1.73;;
40533;SDS011;26233;51.894;10.192;2023-07-16T11:44:53;2.47;;;1.90;;
40533;SDS011;26233;51.894;10.192;2023-07-16T11:47:20;2.78;;;2.40;;
40533;SDS011;26233;51.894;10.192;2023-07-16T11:49:48;2.13;;;1.92;;
40533;SDS011;26233;51.894;10.192;2023-07-16T11:52:18;2.20;;;2.00;;
40533;SDS011;26233;51.894;10.192;2023-07-16T11:54:47;1.88;;;1.77;;
40533;SDS011;26233;51.894;10.192;2023-07-16T11:57:15;2.17;;;1.98;;
40533;SDS011;26233;51.894;10.192;2023-07-16T11:59:42;2.35;;;2.15;;
40533;SDS011;26233;51.894;10.192;2023-07-16T12:02:09;2.30;;;2.10;;
40533;SDS011;26233;51.894;10.192;2023-07-16T12:04:36;2.13;;;2.03;;
40533;SDS011;26233;51.894;10.192;2023-07-16T12:07:03;2.30;;;2.10;;
40533;SDS011;26233;51.894;10.192;2023-07-16T12:09:31;1.98;;;1.88;;
40533;SDS011;26233;51.894;10.192;2023-07-16T12:11:59;2.10;;;1.90;;
40533;SDS011;26233;51.894;10.192;2023-07-16T12:14:27;2.30;;;2.10;;
40533;SDS011;26233;51.894;10.192;2023-07-16T12:16:55;2.17;;;1.98;;
40533;SDS011;26233;51.894;10.192;2023-07-16T12:19:22;2.58;;;2.38;;
40533;SDS011;26233;51.894;10.192;2023-07-16T12:21:50;2.00;;;1.90;;
40533;SDS011;26233;51.894;10.192;2023-07-16T12:24:17;2.00;;;1.90;;
40533;SDS011;26233;51.894;10.192;2023-07-16T12:26:45;2.00;;;1.90;;
40533;SDS011;26233;51.894;10.192;2023-07-16T12:29:13;2.22;;;2.10;;
40533;SDS011;26233;51.894;10.192;2023-07-16T12:31:40;3.00;;;2.10;;
40533;SDS011;26233;51.894;10.192;2023-07-16T12:34:07;2.20;;;2.03;;
40533;SDS011;26233;51.894;10.192;2023-07-16T12:36:34;2.05;;;1.95;;
40533;SDS011;26233;51.894;10.192;2023-07-16T12:39:01;2.30;;;2.10;;
40533;SDS011;26233;51.894;10.192;2023-07-16T12:41:28;2.28;;;2.08;;
40533;SDS011;26233;51.894;10.192;2023-07-16T12:43:56;2.08;;;1.90;;
40533;SDS011;26233;51.894;10.192;2023-07-16T12:46:24;2.35;;;2.20;;
40533;SDS011;26233;51.894;10.192;2023-07-16T12:48:51;2.42;;;2.10;;
40533;SDS011;26233;51.894;10.192;2023-07-16T12:51:18;2.20;;;2.00;;
40533;SDS011;26233;51.894;10.192;2023-07-16T12:53:45;2.40;;;1.88;;
40533;SDS011;26233;51.894;10.192;2023-07-16T12:56:12;1.85;;;1.75;;
40533;SDS011;26233;51.894;10.192;2023-07-16T12:58:39;2.53;;;1.95;;
40533;SDS011;26233;51.894;10.192;2023-07-16T13:01:06;2.30;;;2.10;;
40533;SDS011;26233;51.894;10.192;2023-07-16T13:03:35;2.40;;;2.20;;
40533;SDS011;26233;51.894;10.192;2023-07-16T13:06:02;2.70;;;2.10;;
40533;SDS011;26233;51.894;10.192;2023-07-16T13:08:29;2.60;;;2.10;;
40533;SDS011;26233;51.894;10.192;2023-07-16T13:10:57;3.50;;;2.10;;
40533;SDS011;26233;51.894;10.192;2023-07-16T13:13:25;2.53;;;2.33;;
40533;SDS011;26233;51.894;10.192;2023-07-16T13:15:52;2.58;;;2.30;;
40533;SDS011;26233;51.894;10.192;2023-07-16T13:18:19;2.65;;;2.10;;
40533;SDS011;26233;51.894;10.192;2023-07-16T13:20:48;2.20;;;2.00;;
40533;SDS011;26233;51.894;10.192;2023-07-16T13:23:15;2.17;;;1.98;;
40533;SDS011;26233;51.894;10.192;2023-07-16T13:25:42;2.20;;;2.00;;
40533;SDS011;26233;51.894;10.192;2023-07-16T13:28:09;2.60;;;2.40;;
40533;SDS011;26233;51.894;10.192;2023-07-16T13:30:36;2.30;;;2.10;;
40533;SDS011;26233;51.894;10.192;2023-07-16T13:33:03;3.72;;;2.45;;
40533;SDS011;26233;51.894;10.192;2023-07-16T13:35:30;1.98;;;1.88;;
40533;SDS011;26233;51.894;10.192;2023-07-16T13:37:58;2.35;;;2.15;;
40533;SDS011;26233;51.894;10.192;2023-07-16T13:40:26;2.40;;;2.20;;
40533;SDS011;26233;51.894;10.192;2023-07-16T13:42:53;2.50;;;2.30;;
40533;SDS011;26233;51.894;10.192;2023-07-16T13:45:20;2.38;;;2.17;;
40533;SDS011;26233;51.894;10.192;2023-07-16T13:47:48;2.40;;;2.20;;
40533;SDS011;26233;51.894;10.192;2023-07-16T13:50:17;2.58;;;2.38;;
40533;SDS011;26233;51.894;10.192;2023-07-16T13:52:44;2.20;;;1.95;;
40533;SDS011;26233;51.894;10.192;2023-07-16T13:55:14;3.45;;;2.20;;
40533;SDS011;26233;51.894;10.192;2023-07-16T13:57:41;2.35;;;2.15;;
40533;SDS011;26233;51.894;10.192;2023-07-16T14:00:09;2.53;;;2.30;;
40533;SDS011;26233;51.894;10.192;2023-07-16T14:02:38;2.92;;;2.50;;
40533;SDS011;26233;51.894;10.192;2023-07-16T14:05:05;2.33;;;2.13;;
40533;SDS011;26233;51.894;10.192;2023-07-16T14:07:33;2.25;;;2.00;;
40533;SDS011;26233;51.894;10.192;2023-07-16T14:10:00;3.65;;;2.28;;
40533;SDS011;26233;51.894;10.192;2023-07-16T14:12:28;2.20;;;2.00;;
40533;SDS011;26233;51.894;10.192;2023-07-16T14:14:55;2.50;;;2.20;;
40533;SDS011;26233;51.894;10.192;2023-07-16T14:17:22;2.45;;;2.25;;
40533;SDS011;26233;51.894;10.192;2023-07-16T14:19:49;2.70;;;2.50;;
40533;SDS011;26233;51.894;10.192;2023-07-16T14:22:17;2.42;;;2.22;;
40533;SDS011;26233;51.894;10.192;2023-07-16T14:24:44;2.35;;;2.15;;
40533;SDS011;26233;51.894;10.192;2023-07-16T14:27:15;2.08;;;1.90;;
40533;SDS011;26233;51.894;10.192;2023-07-16T14:29:46;2.92;;;2.40;;
40533;SDS011;26233;51.894;10.192;2023-07-16T14:32:13;3.22;;;2.30;;
40533;SDS011;26233;51.894;10.192;2023-07-16T14:34:40;2.17;;;1.98;;
40533;SDS011;26233;51.894;10.192;2023-07-16T14:37:07;2.10;;;1.90;;
40533;SDS011;26233;51.894;10.192;2023-07-16T14:39:34;2.42;;;2.20;;